sensor_id;sensor_type;location;lat;lon;timestamp;P1;durP1;ratioP1;P2;durP2;ratioP2
64936;SDS011;51452;47.698;19.050;2022-08-25T00:00:18;7.38;;;4.22;;
64936;SDS011;51452;47.698;19.050;2022-08-25T00:02:45;15.20;;;4.20;;
64936;SDS011;51452;47.698;19.050;2022-08-25T00:05:10;11.98;;;4.32;;
64936;SDS011;51452;47.698;19.050;2022-08-25T00:07:36;10.13;;;4.40;;
64936;SDS011;51452;47.698;19.050;2022-08-25T00:10:03;10.00;;;4.13;;
64936;SDS011;51452;47.698;19.050;2022-08-25T00:12:29;12.77;;;4.68;;
64936;SDS011;51452;47.698;19.050;2022-08-25T00:14:54;9.85;;;3.95;;
64936;SDS011;51452;47.698;19.050;2022-08-25T00:17:20;11.20;;;4.78;;
64936;SDS011;51452;47.698;19.050;2022-08-25T00:19:45;11.27;;;4.78;;
64936;SDS011;51452;47.698;19.050;2022-08-25T00:22:10;9.50;;;4.25;;
64936;SDS011;51452;47.698;19.050;2022-08-25T00:24:36;14.52;;;4.28;;
64936;SDS011;51452;47.698;19.050;2022-08-25T00:27:01;10.02;;;4.65;;
64936;SDS011;51452;47.698;19.050;2022-08-25T00:29:27;8.23;;;4.68;;
64936;SDS011;51452;47.698;19.050;2022-08-25T00:31:54;9.65;;;4.32;;
64936;SDS011;51452;47.698;19.050;2022-08-25T00:34:38;10.48;;;4.72;;
64936;SDS011;51452;47.698;19.050;2022-08-25T00:37:05;10.18;;;4.40;;
64936;SDS011;51452;47.698;19.050;2022-08-25T00:39:33;12.20;;;4.80;;
64936;SDS011;51452;47.698;19.050;2022-08-25T00:41:59;8.07;;;4.43;;
64936;SDS011;51452;47.698;19.050;2022-08-25T00:44:26;9.48;;;4.47;;
64936;SDS011;51452;47.698;19.050;2022-08-25T00:46:54;10.18;;;4.32;;
64936;SDS011;51452;47.698;19.050;2022-08-25T00:49:41;10.85;;;4.90;;
64936;SDS011;51452;47.698;19.050;2022-08-25T00:52:16;9.80;;;4.53;;
64936;SDS011;51452;47.698;19.050;2022-08-25T00:54:55;12.07;;;4.65;;
64936;SDS011;51452;47.698;19.050;2022-08-25T00:57:27;9.35;;;4.82;;
64936;SDS011;51452;47.698;19.050;2022-08-25T00:59:56;15.00;;;4.32;;
64936;SDS011;51452;47.698;19.050;2022-08-25T01:02:21;12.27;;;4.53;;
64936;SDS011;51452;47.698;19.050;2022-08-25T01:04:47;9.05;;;4.18;;
64936;SDS011;51452;47.698;19.050;2022-08-25T01:07:13;13.35;;;4.93;;
64936;SDS011;51452;47.698;19.050;2022-08-25T01:09:40;11.75;;;4.63;;
64936;SDS011;51452;47.698;19.050;2022-08-25T01:12:06;12.02;;;5.03;;
64936;SDS011;51452;47.698;19.050;2022-08-25T01:14:32;11.23;;;4.60;;
64936;SDS011;51452;47.698;19.050;2022-08-25T01:16:58;12.27;;;4.93;;
64936;SDS011;51452;47.698;19.050;2022-08-25T01:19:24;13.20;;;5.30;;
64936;SDS011;51452;47.698;19.050;2022-08-25T01:21:53;10.52;;;5.10;;
64936;SDS011;51452;47.698;19.050;2022-08-25T01:26:56;9.15;;;5.90;;
64936;SDS011;51452;47.698;19.050;2022-08-25T01:29:22;9.63;;;5.20;;
64936;SDS011;51452;47.698;19.050;2022-08-25T01:31:52;9.77;;;4.50;;
64936;SDS011;51452;47.698;19.050;2022-08-25T01:34:23;9.75;;;4.75;;
64936;SDS011;51452;47.698;19.050;2022-08-25T01:36:50;10.55;;;5.10;;
64936;SDS011;51452;47.698;19.050;2022-08-25T01:39:16;9.48;;;4.32;;
64936;SDS011;51452;47.698;19.050;2022-08-25T01:44:42;10.85;;;5.07;;
64936;SDS011;51452;47.698;19.050;2022-08-25T01:47:09;12.82;;;5.43;;
64936;SDS011;51452;47.698;19.050;2022-08-25T01:49:34;12.88;;;5.20;;
64936;SDS011;51452;47.698;19.050;2022-08-25T01:52:01;12.57;;;4.72;;
64936;SDS011;51452;47.698;19.050;2022-08-25T01:54:29;12.57;;;4.97;;
64936;SDS011;51452;47.698;19.050;2022-08-25T01:56:56;11.73;;;4.70;;
64936;SDS011;51452;47.698;19.050;2022-08-25T01:59:21;9.60;;;4.63;;
64936;SDS011;51452;47.698;19.050;2022-08-25T02:01:48;7.90;;;4.68;;
64936;SDS011;51452;47.698;19.050;2022-08-25T02:04:13;11.40;;;4.85;;
64936;SDS011;51452;47.698;19.050;2022-08-25T02:06:39;10.23;;;4.60;;
64936;SDS011;51452;47.698;19.050;2022-08-25T02:09:06;10.63;;;4.40;;
64936;SDS011;51452;47.698;19.050;2022-08-25T02:11:35;8.10;;;4.05;;
64936;SDS011;51452;47.698;19.050;2022-08-25T02:14:01;13.13;;;4.72;;
64936;SDS011;51452;47.698;19.050;2022-08-25T02:16:30;10.75;;;4.60;;
64936;SDS011;51452;47.698;19.050;2022-08-25T02:18:58;9.00;;;4.28;;
64936;SDS011;51452;47.698;19.050;2022-08-25T02:21:24;11.05;;;4.90;;
64936;SDS011;51452;47.698;19.050;2022-08-25T02:23:49;10.35;;;4.35;;
64936;SDS011;51452;47.698;19.050;2022-08-25T02:26:15;8.98;;;4.68;;
64936;SDS011;51452;47.698;19.050;2022-08-25T02:28:43;7.70;;;4.28;;
64936;SDS011;51452;47.698;19.050;2022-08-25T02:31:10;9.57;;;4.75;;
64936;SDS011;51452;47.698;19.050;2022-08-25T02:33:37;14.60;;;5.22;;
64936;SDS011;51452;47.698;19.050;2022-08-25T02:36:03;18.23;;;5.18;;
64936;SDS011;51452;47.698;19.050;2022-08-25T02:38:29;9.20;;;4.38;;
64936;SDS011;51452;47.698;19.050;2022-08-25T02:40:55;14.52;;;4.50;;
64936;SDS011;51452;47.698;19.050;2022-08-25T02:43:21;13.18;;;4.68;;
64936;SDS011;51452;47.698;19.050;2022-08-25T02:45:47;9.55;;;4.35;;
64936;SDS011;51452;47.698;19.050;2022-08-25T02:48:12;7.13;;;4.00;;
64936;SDS011;51452;47.698;19.050;2022-08-25T02:50:37;11.23;;;4.43;;
64936;SDS011;51452;47.698;19.050;2022-08-25T02:53:04;7.57;;;3.85;;
64936;SDS011;51452;47.698;19.050;2022-08-25T02:55:29;9.30;;;4.20;;
64936;SDS011;51452;47.698;19.050;2022-08-25T02:57:54;6.90;;;3.67;;
64936;SDS011;51452;47.698;19.050;2022-08-25T03:00:20;12.60;;;4.63;;
64936;SDS011;51452;47.698;19.050;2022-08-25T03:02:45;8.05;;;4.40;;
64936;SDS011;51452;47.698;19.050;2022-08-25T03:05:12;11.18;;;4.22;;
64936;SDS011;51452;47.698;19.050;2022-08-25T03:07:38;8.30;;;3.85;;
64936;SDS011;51452;47.698;19.050;2022-08-25T03:10:08;8.95;;;3.38;;
64936;SDS011;51452;47.698;19.050;2022-08-25T03:15:05;8.90;;;4.15;;
64936;SDS011;51452;47.698;19.050;2022-08-25T03:17:32;8.00;;;4.18;;
64936;SDS011;51452;47.698;19.050;2022-08-25T03:19:57;8.93;;;4.25;;
64936;SDS011;51452;47.698;19.050;2022-08-25T03:22:22;9.75;;;4.28;;
64936;SDS011;51452;47.698;19.050;2022-08-25T03:24:48;6.55;;;3.70;;
64936;SDS011;51452;47.698;19.050;2022-08-25T03:27:13;7.45;;;4.38;;
64936;SDS011;51452;47.698;19.050;2022-08-25T03:29:39;9.18;;;4.15;;
64936;SDS011;51452;47.698;19.050;2022-08-25T03:32:06;7.57;;;3.92;;
64936;SDS011;51452;47.698;19.050;2022-08-25T03:34:32;15.85;;;4.60;;
64936;SDS011;51452;47.698;19.050;2022-08-25T03:36:57;10.50;;;4.05;;
64936;SDS011;51452;47.698;19.050;2022-08-25T03:39:24;10.13;;;4.05;;
64936;SDS011;51452;47.698;19.050;2022-08-25T03:41:51;18.00;;;4.05;;
64936;SDS011;51452;47.698;19.050;2022-08-25T03:44:17;6.65;;;3.65;;
64936;SDS011;51452;47.698;19.050;2022-08-25T03:46:47;8.50;;;3.88;;
64936;SDS011;51452;47.698;19.050;2022-08-25T03:49:16;10.23;;;3.88;;
64936;SDS011;51452;47.698;19.050;2022-08-25T03:51:48;19.02;;;5.07;;
64936;SDS011;51452;47.698;19.050;2022-08-25T03:54:16;9.48;;;3.88;;
64936;SDS011;51452;47.698;19.050;2022-08-25T03:56:43;8.02;;;3.42;;
64936;SDS011;51452;47.698;19.050;2022-08-25T03:59:09;8.70;;;3.70;;
64936;SDS011;51452;47.698;19.050;2022-08-25T04:01:36;7.20;;;3.53;;
64936;SDS011;51452;47.698;19.050;2022-08-25T04:04:02;9.00;;;4.03;;
64936;SDS011;51452;47.698;19.050;2022-08-25T04:06:28;7.90;;;4.28;;
64936;SDS011;51452;47.698;19.050;2022-08-25T04:08:54;10.45;;;4.85;;
64936;SDS011;51452;47.698;19.050;2022-08-25T04:11:22;12.88;;;3.95;;
64936;SDS011;51452;47.698;19.050;2022-08-25T04:13:49;7.32;;;4.50;;
64936;SDS011;51452;47.698;19.050;2022-08-25T04:16:20;13.93;;;4.30;;
64936;SDS011;51452;47.698;19.050;2022-08-25T04:18:48;9.68;;;3.85;;
64936;SDS011;51452;47.698;19.050;2022-08-25T04:21:15;9.48;;;4.13;;
64936;SDS011;51452;47.698;19.050;2022-08-25T04:23:42;10.57;;;3.67;;
64936;SDS011;51452;47.698;19.050;2022-08-25T04:26:13;9.55;;;4.22;;
64936;SDS011;51452;47.698;19.050;2022-08-25T04:28:43;8.57;;;4.20;;
64936;SDS011;51452;47.698;19.050;2022-08-25T04:31:10;13.07;;;4.55;;
64936;SDS011;51452;47.698;19.050;2022-08-25T04:33:38;11.57;;;4.57;;
64936;SDS011;51452;47.698;19.050;2022-08-25T04:36:04;7.78;;;3.90;;
64936;SDS011;51452;47.698;19.050;2022-08-25T04:38:31;10.73;;;4.05;;
64936;SDS011;51452;47.698;19.050;2022-08-25T04:41:01;7.70;;;4.25;;
64936;SDS011;51452;47.698;19.050;2022-08-25T04:43:28;8.85;;;4.00;;
64936;SDS011;51452;47.698;19.050;2022-08-25T04:45:55;6.65;;;3.45;;
64936;SDS011;51452;47.698;19.050;2022-08-25T04:48:21;5.95;;;3.83;;
64936;SDS011;51452;47.698;19.050;2022-08-25T04:50:47;10.32;;;3.83;;
64936;SDS011;51452;47.698;19.050;2022-08-25T04:53:13;14.70;;;3.75;;
64936;SDS011;51452;47.698;19.050;2022-08-25T04:55:42;9.32;;;3.63;;
64936;SDS011;51452;47.698;19.050;2022-08-25T04:58:09;9.65;;;4.18;;
64936;SDS011;51452;47.698;19.050;2022-08-25T05:00:35;11.75;;;4.07;;
64936;SDS011;51452;47.698;19.050;2022-08-25T05:03:02;8.20;;;4.10;;
64936;SDS011;51452;47.698;19.050;2022-08-25T05:05:28;18.38;;;4.18;;
64936;SDS011;51452;47.698;19.050;2022-08-25T05:07:54;9.88;;;3.92;;
64936;SDS011;51452;47.698;19.050;2022-08-25T05:10:20;10.32;;;3.75;;
64936;SDS011;51452;47.698;19.050;2022-08-25T05:12:45;6.43;;;3.75;;
64936;SDS011;51452;47.698;19.050;2022-08-25T05:15:11;14.48;;;4.50;;
64936;SDS011;51452;47.698;19.050;2022-08-25T05:17:55;10.17;;;3.70;;
64936;SDS011;51452;47.698;19.050;2022-08-25T05:20:21;10.35;;;4.40;;
64936;SDS011;51452;47.698;19.050;2022-08-25T05:22:47;9.15;;;4.10;;
64936;SDS011;51452;47.698;19.050;2022-08-25T05:25:12;10.00;;;3.83;;
64936;SDS011;51452;47.698;19.050;2022-08-25T05:27:39;10.93;;;3.90;;
64936;SDS011;51452;47.698;19.050;2022-08-25T05:30:06;6.40;;;3.65;;
64936;SDS011;51452;47.698;19.050;2022-08-25T05:32:32;9.40;;;3.92;;
64936;SDS011;51452;47.698;19.050;2022-08-25T05:34:57;8.20;;;3.80;;
64936;SDS011;51452;47.698;19.050;2022-08-25T05:37:23;7.85;;;3.60;;
64936;SDS011;51452;47.698;19.050;2022-08-25T05:39:48;10.48;;;3.75;;
64936;SDS011;51452;47.698;19.050;2022-08-25T05:42:14;8.05;;;3.58;;
64936;SDS011;51452;47.698;19.050;2022-08-25T05:44:39;14.20;;;4.28;;
64936;SDS011;51452;47.698;19.050;2022-08-25T05:47:05;7.75;;;3.60;;
64936;SDS011;51452;47.698;19.050;2022-08-25T05:49:30;8.77;;;3.65;;
64936;SDS011;51452;47.698;19.050;2022-08-25T05:51:55;6.53;;;3.50;;
64936;SDS011;51452;47.698;19.050;2022-08-25T05:54:21;8.50;;;3.25;;
64936;SDS011;51452;47.698;19.050;2022-08-25T05:56:46;9.88;;;3.78;;
64936;SDS011;51452;47.698;19.050;2022-08-25T05:59:12;10.32;;;3.67;;
64936;SDS011;51452;47.698;19.050;2022-08-25T06:01:37;9.35;;;4.00;;
64936;SDS011;51452;47.698;19.050;2022-08-25T06:04:21;10.57;;;4.10;;
64936;SDS011;51452;47.698;19.050;2022-08-25T06:06:47;9.05;;;3.47;;
64936;SDS011;51452;47.698;19.050;2022-08-25T06:09:13;9.70;;;3.30;;
64936;SDS011;51452;47.698;19.050;2022-08-25T06:11:39;8.05;;;3.70;;
64936;SDS011;51452;47.698;19.050;2022-08-25T06:14:05;10.48;;;4.07;;
64936;SDS011;51452;47.698;19.050;2022-08-25T06:16:32;6.70;;;3.08;;
64936;SDS011;51452;47.698;19.050;2022-08-25T06:18:58;11.55;;;3.47;;
64936;SDS011;51452;47.698;19.050;2022-08-25T06:21:24;8.43;;;4.10;;
64936;SDS011;51452;47.698;19.050;2022-08-25T06:23:49;10.07;;;3.65;;
64936;SDS011;51452;47.698;19.050;2022-08-25T06:26:14;8.32;;;3.65;;
64936;SDS011;51452;47.698;19.050;2022-08-25T06:28:40;14.90;;;4.07;;
64936;SDS011;51452;47.698;19.050;2022-08-25T06:31:05;9.85;;;3.42;;
64936;SDS011;51452;47.698;19.050;2022-08-25T06:33:31;8.02;;;3.80;;
64936;SDS011;51452;47.698;19.050;2022-08-25T06:35:56;10.07;;;4.47;;
64936;SDS011;51452;47.698;19.050;2022-08-25T06:38:22;17.05;;;4.07;;
64936;SDS011;51452;47.698;19.050;2022-08-25T06:40:48;11.15;;;4.25;;
64936;SDS011;51452;47.698;19.050;2022-08-25T06:43:16;10.52;;;4.15;;
64936;SDS011;51452;47.698;19.050;2022-08-25T06:45:42;8.55;;;3.88;;
64936;SDS011;51452;47.698;19.050;2022-08-25T06:48:08;15.88;;;5.03;;
64936;SDS011;51452;47.698;19.050;2022-08-25T06:50:34;12.70;;;5.00;;
64936;SDS011;51452;47.698;19.050;2022-08-25T06:52:59;15.65;;;5.07;;
64936;SDS011;51452;47.698;19.050;2022-08-25T06:55:24;11.82;;;5.20;;
64936;SDS011;51452;47.698;19.050;2022-08-25T06:57:53;19.23;;;5.13;;
64936;SDS011;51452;47.698;19.050;2022-08-25T07:00:18;10.18;;;5.13;;
64936;SDS011;51452;47.698;19.050;2022-08-25T07:02:44;12.70;;;5.00;;
64936;SDS011;51452;47.698;19.050;2022-08-25T07:05:09;13.45;;;4.75;;
64936;SDS011;51452;47.698;19.050;2022-08-25T07:07:36;15.40;;;6.13;;
64936;SDS011;51452;47.698;19.050;2022-08-25T07:10:01;17.83;;;5.40;;
64936;SDS011;51452;47.698;19.050;2022-08-25T07:12:27;18.92;;;4.75;;
64936;SDS011;51452;47.698;19.050;2022-08-25T07:14:53;17.77;;;5.72;;
64936;SDS011;51452;47.698;19.050;2022-08-25T07:17:18;11.65;;;4.60;;
64936;SDS011;51452;47.698;19.050;2022-08-25T07:19:45;13.82;;;4.78;;
64936;SDS011;51452;47.698;19.050;2022-08-25T07:22:11;14.25;;;4.55;;
64936;SDS011;51452;47.698;19.050;2022-08-25T07:24:36;17.08;;;4.78;;
64936;SDS011;51452;47.698;19.050;2022-08-25T07:27:02;11.13;;;4.70;;
64936;SDS011;51452;47.698;19.050;2022-08-25T07:29:28;12.15;;;4.05;;
64936;SDS011;51452;47.698;19.050;2022-08-25T07:31:55;9.95;;;3.90;;
64936;SDS011;51452;47.698;19.050;2022-08-25T07:34:20;24.80;;;5.18;;
64936;SDS011;51452;47.698;19.050;2022-08-25T07:37:04;14.98;;;4.22;;
64936;SDS011;51452;47.698;19.050;2022-08-25T07:39:30;8.57;;;4.50;;
64936;SDS011;51452;47.698;19.050;2022-08-25T07:41:57;11.68;;;4.40;;
64936;SDS011;51452;47.698;19.050;2022-08-25T07:44:23;12.30;;;4.07;;
64936;SDS011;51452;47.698;19.050;2022-08-25T07:46:50;15.73;;;4.50;;
64936;SDS011;51452;47.698;19.050;2022-08-25T07:49:20;10.70;;;3.83;;
64936;SDS011;51452;47.698;19.050;2022-08-25T07:51:46;11.77;;;4.63;;
64936;SDS011;51452;47.698;19.050;2022-08-25T07:54:12;8.45;;;4.15;;
64936;SDS011;51452;47.698;19.050;2022-08-25T07:56:37;13.05;;;3.80;;
64936;SDS011;51452;47.698;19.050;2022-08-25T07:59:05;10.07;;;3.90;;
64936;SDS011;51452;47.698;19.050;2022-08-25T08:01:31;7.43;;;3.55;;
64936;SDS011;51452;47.698;19.050;2022-08-25T08:03:56;11.43;;;3.63;;
64936;SDS011;51452;47.698;19.050;2022-08-25T08:06:22;11.13;;;3.67;;
64936;SDS011;51452;47.698;19.050;2022-08-25T08:08:49;10.50;;;3.55;;
64936;SDS011;51452;47.698;19.050;2022-08-25T08:11:23;10.25;;;3.67;;
64936;SDS011;51452;47.698;19.050;2022-08-25T08:13:51;8.70;;;3.22;;
64936;SDS011;51452;47.698;19.050;2022-08-25T08:16:18;10.13;;;3.50;;
64936;SDS011;51452;47.698;19.050;2022-08-25T08:18:45;9.60;;;3.03;;
64936;SDS011;51452;47.698;19.050;2022-08-25T08:21:15;7.80;;;2.80;;
64936;SDS011;51452;47.698;19.050;2022-08-25T08:23:46;7.47;;;3.58;;
64936;SDS011;51452;47.698;19.050;2022-08-25T08:26:12;7.05;;;2.70;;
64936;SDS011;51452;47.698;19.050;2022-08-25T08:28:37;8.63;;;3.10;;
64936;SDS011;51452;47.698;19.050;2022-08-25T08:31:03;11.98;;;3.00;;
64936;SDS011;51452;47.698;19.050;2022-08-25T08:33:29;6.55;;;2.72;;
64936;SDS011;51452;47.698;19.050;2022-08-25T08:35:59;9.13;;;3.05;;
64936;SDS011;51452;47.698;19.050;2022-08-25T08:38:26;6.43;;;2.42;;
64936;SDS011;51452;47.698;19.050;2022-08-25T08:41:02;7.38;;;2.80;;
64936;SDS011;51452;47.698;19.050;2022-08-25T08:43:51;5.57;;;2.50;;
64936;SDS011;51452;47.698;19.050;2022-08-25T08:46:24;6.70;;;3.00;;
64936;SDS011;51452;47.698;19.050;2022-08-25T08:49:05;8.77;;;2.80;;
64936;SDS011;51452;47.698;19.050;2022-08-25T08:51:48;6.68;;;2.85;;
64936;SDS011;51452;47.698;19.050;2022-08-25T08:54:21;11.43;;;2.90;;
64936;SDS011;51452;47.698;19.050;2022-08-25T08:56:55;5.75;;;2.55;;
64936;SDS011;51452;47.698;19.050;2022-08-25T08:59:30;11.57;;;3.13;;
64936;SDS011;51452;47.698;19.050;2022-08-25T09:02:05;7.38;;;3.22;;
64936;SDS011;51452;47.698;19.050;2022-08-25T09:04:56;10.13;;;2.83;;
64936;SDS011;51452;47.698;19.050;2022-08-25T09:07:28;7.03;;;2.70;;
64936;SDS011;51452;47.698;19.050;2022-08-25T09:09:57;8.43;;;2.85;;
64936;SDS011;51452;47.698;19.050;2022-08-25T09:18:32;7.15;;;2.92;;
64936;SDS011;51452;47.698;19.050;2022-08-25T09:26:42;7.47;;;2.53;;
64936;SDS011;51452;47.698;19.050;2022-08-25T09:29:14;9.20;;;2.58;;
64936;SDS011;51452;47.698;19.050;2022-08-25T09:31:46;5.43;;;2.30;;
64936;SDS011;51452;47.698;19.050;2022-08-25T09:36:38;7.70;;;2.53;;
64936;SDS011;51452;47.698;19.050;2022-08-25T09:39:04;5.78;;;2.53;;
64936;SDS011;51452;47.698;19.050;2022-08-25T09:41:44;9.52;;;2.65;;
64936;SDS011;51452;47.698;19.050;2022-08-25T09:50:16;5.32;;;2.47;;
64936;SDS011;51452;47.698;19.050;2022-08-25T09:52:39;9.75;;;2.60;;
64936;SDS011;51452;47.698;19.050;2022-08-25T10:00:12;8.95;;;2.50;;
64936;SDS011;51452;47.698;19.050;2022-08-25T10:05:58;10.27;;;3.35;;
64936;SDS011;51452;47.698;19.050;2022-08-25T10:08:27;9.13;;;2.85;;
64936;SDS011;51452;47.698;19.050;2022-08-25T10:11:07;8.82;;;2.40;;
64936;SDS011;51452;47.698;19.050;2022-08-25T10:13:41;5.80;;;2.63;;
64936;SDS011;51452;47.698;19.050;2022-08-25T10:16:28;11.50;;;2.95;;
64936;SDS011;51452;47.698;19.050;2022-08-25T10:21:26;6.65;;;2.60;;
64936;SDS011;51452;47.698;19.050;2022-08-25T10:23:51;7.10;;;2.72;;
64936;SDS011;51452;47.698;19.050;2022-08-25T10:29:11;8.20;;;2.80;;
64936;SDS011;51452;47.698;19.050;2022-08-25T10:31:55;6.68;;;2.40;;
64936;SDS011;51452;47.698;19.050;2022-08-25T10:34:42;5.72;;;2.20;;
64936;SDS011;51452;47.698;19.050;2022-08-25T10:37:48;5.57;;;2.35;;
64936;SDS011;51452;47.698;19.050;2022-08-25T10:40:35;7.68;;;2.20;;
64936;SDS011;51452;47.698;19.050;2022-08-25T10:43:12;8.25;;;2.60;;
64936;SDS011;51452;47.698;19.050;2022-08-25T10:45:49;12.93;;;2.67;;
64936;SDS011;51452;47.698;19.050;2022-08-25T10:56:50;6.30;;;2.13;;
64936;SDS011;51452;47.698;19.050;2022-08-25T10:59:28;7.53;;;2.53;;
64936;SDS011;51452;47.698;19.050;2022-08-25T11:07:54;7.65;;;2.33;;
64936;SDS011;51452;47.698;19.050;2022-08-25T11:10:37;7.65;;;2.38;;
64936;SDS011;51452;47.698;19.050;2022-08-25T11:13:35;5.68;;;2.40;;
64936;SDS011;51452;47.698;19.050;2022-08-25T11:16:09;10.85;;;2.60;;
64936;SDS011;51452;47.698;19.050;2022-08-25T11:18:41;5.63;;;2.10;;
64936;SDS011;51452;47.698;19.050;2022-08-25T11:21:19;8.90;;;2.25;;
64936;SDS011;51452;47.698;19.050;2022-08-25T11:23:54;5.93;;;2.75;;
64936;SDS011;51452;47.698;19.050;2022-08-25T11:26:29;7.90;;;2.70;;
64936;SDS011;51452;47.698;19.050;2022-08-25T11:31:30;9.90;;;2.40;;
64936;SDS011;51452;47.698;19.050;2022-08-25T11:34:02;5.93;;;2.25;;
64936;SDS011;51452;47.698;19.050;2022-08-25T11:36:29;7.85;;;2.10;;
64936;SDS011;51452;47.698;19.050;2022-08-25T11:41:36;5.72;;;2.13;;
64936;SDS011;51452;47.698;19.050;2022-08-25T11:50:01;8.02;;;2.45;;
64936;SDS011;51452;47.698;19.050;2022-08-25T11:52:47;4.40;;;2.35;;
64936;SDS011;51452;47.698;19.050;2022-08-25T11:57:44;6.82;;;2.38;;
64936;SDS011;51452;47.698;19.050;2022-08-25T12:00:12;6.72;;;2.83;;
64936;SDS011;51452;47.698;19.050;2022-08-25T12:02:53;9.52;;;2.60;;
64936;SDS011;51452;47.698;19.050;2022-08-25T12:16:58;13.27;;;3.10;;
64936;SDS011;51452;47.698;19.050;2022-08-25T12:21:48;7.32;;;2.58;;
64936;SDS011;51452;47.698;19.050;2022-08-25T12:24:15;5.72;;;2.63;;
64936;SDS011;51452;47.698;19.050;2022-08-25T12:29:30;10.32;;;2.95;;
64936;SDS011;51452;47.698;19.050;2022-08-25T12:34:42;11.07;;;3.30;;
64936;SDS011;51452;47.698;19.050;2022-08-25T12:37:30;9.43;;;3.00;;
64936;SDS011;51452;47.698;19.050;2022-08-25T12:39:57;10.45;;;2.65;;
64936;SDS011;51452;47.698;19.050;2022-08-25T12:42:35;15.77;;;2.65;;
64936;SDS011;51452;47.698;19.050;2022-08-25T12:45:08;9.35;;;2.70;;
64936;SDS011;51452;47.698;19.050;2022-08-25T12:47:49;9.38;;;2.70;;
64936;SDS011;51452;47.698;19.050;2022-08-25T12:53:08;11.98;;;3.15;;
64936;SDS011;51452;47.698;19.050;2022-08-25T12:58:18;13.32;;;3.47;;
64936;SDS011;51452;47.698;19.050;2022-08-25T13:03:57;13.23;;;3.97;;
64936;SDS011;51452;47.698;19.050;2022-08-25T13:14:52;9.52;;;2.85;;
64936;SDS011;51452;47.698;19.050;2022-08-25T13:17:29;8.48;;;2.58;;
64936;SDS011;51452;47.698;19.050;2022-08-25T13:20:12;12.52;;;3.13;;
64936;SDS011;51452;47.698;19.050;2022-08-25T13:22:39;7.25;;;2.67;;
64936;SDS011;51452;47.698;19.050;2022-08-25T13:25:13;17.77;;;3.10;;
64936;SDS011;51452;47.698;19.050;2022-08-25T13:27:40;15.48;;;3.28;;
64936;SDS011;51452;47.698;19.050;2022-08-25T13:30:05;11.85;;;3.30;;
64936;SDS011;51452;47.698;19.050;2022-08-25T13:32:32;13.40;;;2.83;;
64936;SDS011;51452;47.698;19.050;2022-08-25T13:35:07;8.63;;;2.50;;
64936;SDS011;51452;47.698;19.050;2022-08-25T13:38:17;12.35;;;3.45;;
64936;SDS011;51452;47.698;19.050;2022-08-25T13:40:42;12.55;;;3.45;;
64936;SDS011;51452;47.698;19.050;2022-08-25T13:43:08;9.88;;;2.97;;
64936;SDS011;51452;47.698;19.050;2022-08-25T13:45:38;9.60;;;2.67;;
64936;SDS011;51452;47.698;19.050;2022-08-25T13:48:09;10.93;;;3.10;;
64936;SDS011;51452;47.698;19.050;2022-08-25T13:50:36;11.60;;;2.67;;
64936;SDS011;51452;47.698;19.050;2022-08-25T13:55:48;14.25;;;3.00;;
64936;SDS011;51452;47.698;19.050;2022-08-25T13:58:26;9.57;;;2.60;;
64936;SDS011;51452;47.698;19.050;2022-08-25T14:03:33;7.85;;;2.75;;
64936;SDS011;51452;47.698;19.050;2022-08-25T14:06:22;11.10;;;3.38;;
64936;SDS011;51452;47.698;19.050;2022-08-25T14:11:31;5.85;;;2.78;;
64936;SDS011;51452;47.698;19.050;2022-08-25T14:16:48;10.10;;;2.97;;
64936;SDS011;51452;47.698;19.050;2022-08-25T14:19:24;5.88;;;2.60;;
64936;SDS011;51452;47.698;19.050;2022-08-25T14:21:51;9.77;;;2.80;;
64936;SDS011;51452;47.698;19.050;2022-08-25T14:24:18;8.55;;;2.47;;
64936;SDS011;51452;47.698;19.050;2022-08-25T14:26:45;7.68;;;2.90;;
64936;SDS011;51452;47.698;19.050;2022-08-25T14:29:11;14.10;;;3.15;;
64936;SDS011;51452;47.698;19.050;2022-08-25T14:31:38;10.10;;;3.30;;
64936;SDS011;51452;47.698;19.050;2022-08-25T14:34:20;10.40;;;2.60;;
64936;SDS011;51452;47.698;19.050;2022-08-25T14:36:47;13.85;;;2.90;;
64936;SDS011;51452;47.698;19.050;2022-08-25T14:39:13;9.00;;;2.80;;
64936;SDS011;51452;47.698;19.050;2022-08-25T14:41:39;6.60;;;2.35;;
64936;SDS011;51452;47.698;19.050;2022-08-25T14:44:07;14.52;;;3.03;;
64936;SDS011;51452;47.698;19.050;2022-08-25T14:46:35;15.05;;;2.88;;
64936;SDS011;51452;47.698;19.050;2022-08-25T14:49:05;10.02;;;2.70;;
64936;SDS011;51452;47.698;19.050;2022-08-25T14:51:33;11.85;;;2.60;;
64936;SDS011;51452;47.698;19.050;2022-08-25T14:54:01;9.43;;;2.90;;
64936;SDS011;51452;47.698;19.050;2022-08-25T14:56:30;6.13;;;2.70;;
64936;SDS011;51452;47.698;19.050;2022-08-25T14:58:56;6.57;;;2.92;;
64936;SDS011;51452;47.698;19.050;2022-08-25T15:01:22;13.93;;;3.38;;
64936;SDS011;51452;47.698;19.050;2022-08-25T15:03:49;11.20;;;3.03;;
64936;SDS011;51452;47.698;19.050;2022-08-25T15:06:17;11.60;;;2.80;;
64936;SDS011;51452;47.698;19.050;2022-08-25T15:08:42;8.07;;;2.78;;
64936;SDS011;51452;47.698;19.050;2022-08-25T15:11:27;17.65;;;2.72;;
64936;SDS011;51452;47.698;19.050;2022-08-25T15:13:54;6.47;;;2.67;;
64936;SDS011;51452;47.698;19.050;2022-08-25T15:16:25;9.38;;;3.03;;
64936;SDS011;51452;47.698;19.050;2022-08-25T15:18:53;8.20;;;2.42;;
64936;SDS011;51452;47.698;19.050;2022-08-25T15:21:18;11.50;;;3.03;;
64936;SDS011;51452;47.698;19.050;2022-08-25T15:23:43;11.40;;;3.42;;
64936;SDS011;51452;47.698;19.050;2022-08-25T15:26:10;6.03;;;2.60;;
64936;SDS011;51452;47.698;19.050;2022-08-25T15:28:47;7.47;;;2.67;;
64936;SDS011;51452;47.698;19.050;2022-08-25T15:31:14;11.13;;;2.60;;
64936;SDS011;51452;47.698;19.050;2022-08-25T15:33:41;11.30;;;3.30;;
64936;SDS011;51452;47.698;19.050;2022-08-25T15:36:10;9.88;;;2.75;;
64936;SDS011;51452;47.698;19.050;2022-08-25T15:38:38;6.45;;;2.60;;
64936;SDS011;51452;47.698;19.050;2022-08-25T15:41:06;9.35;;;3.25;;
64936;SDS011;51452;47.698;19.050;2022-08-25T15:43:32;7.03;;;2.78;;
64936;SDS011;51452;47.698;19.050;2022-08-25T15:45:58;13.00;;;3.00;;
64936;SDS011;51452;47.698;19.050;2022-08-25T15:48:24;7.68;;;2.42;;
64936;SDS011;51452;47.698;19.050;2022-08-25T15:50:52;10.95;;;2.70;;
64936;SDS011;51452;47.698;19.050;2022-08-25T15:53:22;9.45;;;3.05;;
64936;SDS011;51452;47.698;19.050;2022-08-25T15:55:50;11.65;;;3.08;;
64936;SDS011;51452;47.698;19.050;2022-08-25T15:58:16;10.07;;;3.35;;
64936;SDS011;51452;47.698;19.050;2022-08-25T16:00:41;11.02;;;2.90;;
64936;SDS011;51452;47.698;19.050;2022-08-25T16:03:07;8.68;;;3.00;;
64936;SDS011;51452;47.698;19.050;2022-08-25T16:05:36;8.25;;;2.95;;
64936;SDS011;51452;47.698;19.050;2022-08-25T16:08:03;11.25;;;2.97;;
64936;SDS011;51452;47.698;19.050;2022-08-25T16:10:33;9.73;;;3.42;;
64936;SDS011;51452;47.698;19.050;2022-08-25T16:12:59;11.57;;;3.10;;
64936;SDS011;51452;47.698;19.050;2022-08-25T16:15:25;8.00;;;3.42;;
64936;SDS011;51452;47.698;19.050;2022-08-25T16:17:52;4.82;;;2.38;;
64936;SDS011;51452;47.698;19.050;2022-08-25T16:20:17;6.95;;;3.08;;
64936;SDS011;51452;47.698;19.050;2022-08-25T16:22:44;8.60;;;2.85;;
64936;SDS011;51452;47.698;19.050;2022-08-25T16:25:10;11.77;;;3.17;;
64936;SDS011;51452;47.698;19.050;2022-08-25T16:27:36;9.25;;;3.38;;
64936;SDS011;51452;47.698;19.050;2022-08-25T16:30:01;6.15;;;2.83;;
64936;SDS011;51452;47.698;19.050;2022-08-25T16:32:26;6.95;;;2.70;;
64936;SDS011;51452;47.698;19.050;2022-08-25T16:34:52;7.70;;;2.50;;